sensor_id;sensor_type;location;lat;lon;timestamp;pressure;altitude;pressure_sealevel;temperature;humidity
49515;BME280;35415;47.870;16.058;2022-08-03T00:01:07;97582.09;;;19.12;72.22
49515;BME280;35415;47.870;16.058;2022-08-03T00:03:34;97587.88;;;19.11;72.45
49515;BME280;35415;47.870;16.058;2022-08-03T00:06:01;97571.66;;;19.06;72.83
49515;BME280;35415;47.870;16.058;2022-08-03T00:08:28;97580.16;;;19.04;72.84
49515;BME280;35415;47.870;16.058;2022-08-03T00:10:55;97582.25;;;18.99;72.98
49515;BME280;35415;47.870;16.058;2022-08-03T00:13:25;97582.34;;;18.93;72.94
49515;BME280;35415;47.870;16.058;2022-08-03T00:15:52;97580.75;;;18.92;73.50
49515;BME280;35415;47.870;16.058;2022-08-03T00:18:20;97577.38;;;18.87;73.50
49515;BME280;35415;47.870;16.058;2022-08-03T00:20:47;97579.59;;;18.85;73.72
49515;BME280;35415;47.870;16.058;2022-08-03T00:23:14;97583.75;;;18.82;73.36
49515;BME280;35415;47.870;16.058;2022-08-03T00:25:41;97575.22;;;18.75;73.95
49515;BME280;35415;47.870;16.058;2022-08-03T00:28:09;97583.56;;;18.79;74.27
49515;BME280;35415;47.870;16.058;2022-08-03T00:30:37;97580.34;;;18.77;73.88
49515;BME280;35415;47.870;16.058;2022-08-03T00:33:04;97578.25;;;18.74;73.93
49515;BME280;35415;47.870;16.058;2022-08-03T00:35:31;97581.28;;;18.72;73.92
49515;BME280;35415;47.870;16.058;2022-08-03T00:37:59;97584.66;;;18.69;73.98
49515;BME280;35415;47.870;16.058;2022-08-03T00:40:28;97572.84;;;18.60;74.39
49515;BME280;35415;47.870;16.058;2022-08-03T00:42:57;97582.31;;;18.62;74.12
49515;BME280;35415;47.870;16.058;2022-08-03T00:45:26;97577.81;;;18.58;74.43
49515;BME280;35415;47.870;16.058;2022-08-03T00:47:56;97568.78;;;18.49;74.30
49515;BME280;35415;47.870;16.058;2022-08-03T00:50:26;97581.16;;;18.55;74.23
49515;BME280;35415;47.870;16.058;2022-08-03T00:52:55;97572.81;;;18.51;74.55
49515;BME280;35415;47.870;16.058;2022-08-03T00:55:23;97569.69;;;18.44;74.95
49515;BME280;35415;47.870;16.058;2022-08-03T00:57:51;97575.16;;;18.44;74.98
49515;BME280;35415;47.870;16.058;2022-08-03T01:00:21;97574.66;;;18.42;75.18
49515;BME280;35415;47.870;16.058;2022-08-03T01:02:49;97525.59;;;18.11;75.11
49515;BME280;35415;47.870;16.058;2022-08-03T01:05:18;97574.00;;;18.37;75.05
49515;BME280;35415;47.870;16.058;2022-08-03T01:07:57;97544.41;;;18.21;74.56
49515;BME280;35415;47.870;16.058;2022-08-03T01:10:36;97584.72;;;18.33;75.24
49515;BME280;35415;47.870;16.058;2022-08-03T01:13:18;97575.22;;;18.30;74.97
49515;BME280;35415;47.870;16.058;2022-08-03T01:15:54;97582.09;;;18.28;74.94
49515;BME280;35415;47.870;16.058;2022-08-03T01:18:30;97587.97;;;18.21;75.71
49515;BME280;35415;47.870;16.058;2022-08-03T01:21:00;97585.56;;;18.20;75.80
49515;BME280;35415;47.870;16.058;2022-08-03T01:23:52;97579.81;;;18.21;75.08
49515;BME280;35415;47.870;16.058;2022-08-03T01:26:41;97579.63;;;18.18;75.56
49515;BME280;35415;47.870;16.058;2022-08-03T01:29:44;97576.19;;;18.12;75.86
49515;BME280;35415;47.870;16.058;2022-08-03T01:32:18;97571.06;;;18.11;76.28
49515;BME280;35415;47.870;16.058;2022-08-03T01:34:50;97563.16;;;18.00;76.24
49515;BME280;35415;47.870;16.058;2022-08-03T01:37:22;97554.28;;;17.95;76.43
49515;BME280;35415;47.870;16.058;2022-08-03T01:39:50;97569.66;;;18.13;74.31
49515;BME280;35415;47.870;16.058;2022-08-03T01:42:18;97562.34;;;18.00;76.08
49515;BME280;35415;47.870;16.058;2022-08-03T01:44:49;97556.53;;;17.93;76.34
49515;BME280;35415;47.870;16.058;2022-08-03T01:47:19;97553.31;;;17.91;76.47
49515;BME280;35415;47.870;16.058;2022-08-03T01:49:47;97558.88;;;17.86;76.68
49515;BME280;35415;47.870;16.058;2022-08-03T01:52:18;97522.06;;;17.52;77.24
49515;BME280;35415;47.870;16.058;2022-08-03T01:54:50;97564.72;;;17.79;76.99
49515;BME280;35415;47.870;16.058;2022-08-03T01:57:19;97563.41;;;17.77;77.15
49515;BME280;35415;47.870;16.058;2022-08-03T01:59:49;97522.84;;;17.53;77.11
49515;BME280;35415;47.870;16.058;2022-08-03T02:02:17;97521.66;;;17.45;77.45
49515;BME280;35415;47.870;16.058;2022-08-03T02:04:46;97561.72;;;17.67;77.90
49515;BME280;35415;47.870;16.058;2022-08-03T02:07:15;97563.13;;;17.64;77.71
49515;BME280;35415;47.870;16.058;2022-08-03T02:09:45;97425.81;;;16.76;77.80
49515;BME280;35415;47.870;16.058;2022-08-03T02:12:13;97533.34;;;17.45;78.43
49515;BME280;35415;47.870;16.058;2022-08-03T02:14:43;97556.50;;;17.57;77.88
49515;BME280;35415;47.870;16.058;2022-08-03T02:17:14;97560.63;;;17.54;77.91
49515;BME280;35415;47.870;16.058;2022-08-03T02:19:42;97520.91;;;17.31;78.20
49515;BME280;35415;47.870;16.058;2022-08-03T02:22:10;97557.22;;;17.49;78.38
49515;BME280;35415;47.870;16.058;2022-08-03T02:24:39;97553.97;;;17.47;78.32
49515;BME280;35415;47.870;16.058;2022-08-03T02:27:13;97551.06;;;17.43;78.38
49515;BME280;35415;47.870;16.058;2022-08-03T02:29:45;97552.19;;;17.42;77.86
49515;BME280;35415;47.870;16.058;2022-08-03T02:32:19;97548.66;;;17.41;78.28
49515;BME280;35415;47.870;16.058;2022-08-03T02:34:50;97564.78;;;17.38;78.46
49515;BME280;35415;47.870;16.058;2022-08-03T02:37:18;97557.25;;;17.35;78.75
49515;BME280;35415;47.870;16.058;2022-08-03T02:39:47;97564.09;;;17.32;78.61
49515;BME280;35415;47.870;16.058;2022-08-03T02:42:20;97562.19;;;17.33;78.12
49515;BME280;35415;47.870;16.058;2022-08-03T02:44:49;97556.81;;;17.28;78.82
49515;BME280;35415;47.870;16.058;2022-08-03T02:47:21;97572.63;;;17.26;78.76
49515;BME280;35415;47.870;16.058;2022-08-03T02:49:50;97563.19;;;17.23;79.00
49515;BME280;35415;47.870;16.058;2022-08-03T02:52:20;97548.19;;;17.12;78.99
49515;BME280;35415;47.870;16.058;2022-08-03T02:54:55;97510.66;;;16.87;78.82
49515;BME280;35415;47.870;16.058;2022-08-03T02:57:27;97570.66;;;17.18;78.93
49515;BME280;35415;47.870;16.058;2022-08-03T02:59:56;97563.91;;;17.15;78.74
49515;BME280;35415;47.870;16.058;2022-08-03T03:02:26;97573.44;;;17.12;78.77
49515;BME280;35415;47.870;16.058;2022-08-03T03:04:57;97571.34;;;17.09;78.96
49515;BME280;35415;47.870;16.058;2022-08-03T03:07:26;97571.63;;;17.08;79.01
49515;BME280;35415;47.870;16.058;2022-08-03T03:09:54;97576.06;;;17.04;79.60
49515;BME280;35415;47.870;16.058;2022-08-03T03:12:25;97573.16;;;17.00;79.30
49515;BME280;35415;47.870;16.058;2022-08-03T03:14:53;97555.72;;;16.88;79.58
49515;BME280;35415;47.870;16.058;2022-08-03T03:17:20;97562.56;;;16.85;79.67
49515;BME280;35415;47.870;16.058;2022-08-03T03:19:50;97575.44;;;16.93;79.97
49515;BME280;35415;47.870;16.058;2022-08-03T03:22:18;97520.44;;;16.55;79.95
49515;BME280;35415;47.870;16.058;2022-08-03T03:24:46;97573.63;;;16.89;79.59
49515;BME280;35415;47.870;16.058;2022-08-03T03:27:16;97578.38;;;16.83;79.84
49515;BME280;35415;47.870;16.058;2022-08-03T03:29:44;97569.19;;;16.79;79.69
49515;BME280;35415;47.870;16.058;2022-08-03T03:32:11;97543.19;;;16.59;80.08
49515;BME280;35415;47.870;16.058;2022-08-03T03:34:39;97577.13;;;16.75;80.42
49515;BME280;35415;47.870;16.058;2022-08-03T03:37:07;97574.22;;;16.72;80.15
49515;BME280;35415;47.870;16.058;2022-08-03T03:39:34;97589.72;;;16.71;80.27
49515;BME280;35415;47.870;16.058;2022-08-03T03:42:02;97584.88;;;16.68;80.11
49515;BME280;35415;47.870;16.058;2022-08-03T03:44:30;97561.69;;;16.57;80.24
49515;BME280;35415;47.870;16.058;2022-08-03T03:46:57;97572.56;;;16.57;80.00
49515;BME280;35415;47.870;16.058;2022-08-03T03:49:25;97582.25;;;16.63;80.41
49515;BME280;35415;47.870;16.058;2022-08-03T03:51:52;97579.78;;;16.62;80.24
49515;BME280;35415;47.870;16.058;2022-08-03T03:54:21;97582.00;;;16.60;80.45
49515;BME280;35415;47.870;16.058;2022-08-03T03:56:49;97573.44;;;16.52;80.37
49515;BME280;35415;47.870;16.058;2022-08-03T03:59:16;97587.22;;;16.56;80.69
49515;BME280;35415;47.870;16.058;2022-08-03T04:01:43;97573.25;;;16.49;80.61
49515;BME280;35415;47.870;16.058;2022-08-03T04:04:10;97588.34;;;16.55;80.90
49515;BME280;35415;47.870;16.058;2022-08-03T04:06:55;97583.22;;;16.53;80.71
49515;BME280;35415;47.870;16.058;2022-08-03T04:09:41;97590.25;;;16.54;80.62
49515;BME280;35415;47.870;16.058;2022-08-03T04:12:28;97594.06;;;16.53;80.99
49515;BME280;35415;47.870;16.058;2022-08-03T04:14:58;97551.03;;;16.28;80.67
49515;BME280;35415;47.870;16.058;2022-08-03T04:17:27;97585.41;;;16.51;81.01
49515;BME280;35415;47.870;16.058;2022-08-03T04:19:56;97592.75;;;16.51;80.99
49515;BME280;35415;47.870;16.058;2022-08-03T04:22:26;97590.03;;;16.51;80.65
49515;BME280;35415;47.870;16.058;2022-08-03T04:25:00;97598.50;;;16.49;80.43
49515;BME280;35415;47.870;16.058;2022-08-03T04:27:33;97559.78;;;16.25;80.71
49515;BME280;35415;47.870;16.058;2022-08-03T04:30:03;97600.69;;;16.47;80.72
49515;BME280;35415;47.870;16.058;2022-08-03T04:32:31;97589.31;;;16.45;81.03
49515;BME280;35415;47.870;16.058;2022-08-03T04:34:58;97597.25;;;16.42;81.05
49515;BME280;35415;47.870;16.058;2022-08-03T04:37:34;97586.47;;;16.37;80.65
49515;BME280;35415;47.870;16.058;2022-08-03T04:40:08;97539.13;;;16.10;80.92
49515;BME280;35415;47.870;16.058;2022-08-03T04:42:37;97599.91;;;16.47;81.14
49515;BME280;35415;47.870;16.058;2022-08-03T04:45:06;97586.19;;;16.38;80.48
49515;BME280;35415;47.870;16.058;2022-08-03T04:47:34;97597.97;;;16.47;80.70
49515;BME280;35415;47.870;16.058;2022-08-03T04:50:03;97607.75;;;16.48;80.62
49515;BME280;35415;47.870;16.058;2022-08-03T04:52:31;97557.16;;;16.20;80.64
49515;BME280;35415;47.870;16.058;2022-08-03T04:54:59;97604.53;;;16.46;80.82
49515;BME280;35415;47.870;16.058;2022-08-03T04:57:28;97600.41;;;16.49;81.15
49515;BME280;35415;47.870;16.058;2022-08-03T04:59:55;97603.13;;;16.49;80.83
49515;BME280;35415;47.870;16.058;2022-08-03T05:02:22;97486.75;;;15.77;81.38
49515;BME280;35415;47.870;16.058;2022-08-03T05:04:49;97606.63;;;16.49;81.26
49515;BME280;35415;47.870;16.058;2022-08-03T05:07:17;97606.63;;;16.49;80.90
49515;BME280;35415;47.870;16.058;2022-08-03T05:09:44;97586.28;;;16.33;80.94
49515;BME280;35415;47.870;16.058;2022-08-03T05:12:11;97610.38;;;16.53;81.25
49515;BME280;35415;47.870;16.058;2022-08-03T05:14:40;97620.13;;;16.54;81.50
49515;BME280;35415;47.870;16.058;2022-08-03T05:17:07;97611.66;;;16.56;81.08
49515;BME280;35415;47.870;16.058;2022-08-03T05:19:35;97611.38;;;16.58;81.29
49515;BME280;35415;47.870;16.058;2022-08-03T05:22:02;97608.06;;;16.61;81.63
49515;BME280;35415;47.870;16.058;2022-08-03T05:24:29;97614.00;;;16.63;81.27
49515;BME280;35415;47.870;16.058;2022-08-03T05:26:56;97611.00;;;16.64;81.65
49515;BME280;35415;47.870;16.058;2022-08-03T05:29:23;97613.97;;;16.68;81.72
49515;BME280;35415;47.870;16.058;2022-08-03T05:31:51;97606.81;;;16.72;81.73
49515;BME280;35415;47.870;16.058;2022-08-03T05:34:18;97607.81;;;16.76;81.39
49515;BME280;35415;47.870;16.058;2022-08-03T05:36:45;97611.56;;;16.80;81.67
49515;BME280;35415;47.870;16.058;2022-08-03T05:39:12;97616.91;;;16.85;81.71
49515;BME280;35415;47.870;16.058;2022-08-03T05:41:39;97616.81;;;16.90;81.85
49515;BME280;35415;47.870;16.058;2022-08-03T05:44:06;97621.88;;;16.97;81.70
49515;BME280;35415;47.870;16.058;2022-08-03T05:46:33;97619.06;;;17.02;81.72
49515;BME280;35415;47.870;16.058;2022-08-03T05:49:02;97620.25;;;17.09;81.22
49515;BME280;35415;47.870;16.058;2022-08-03T05:51:29;97618.25;;;17.15;81.06
49515;BME280;35415;47.870;16.058;2022-08-03T05:53:56;97612.41;;;17.22;80.86
49515;BME280;35415;47.870;16.058;2022-08-03T05:56:23;97622.88;;;17.28;80.74
49515;BME280;35415;47.870;16.058;2022-08-03T05:58:50;97615.94;;;17.36;81.27
49515;BME280;35415;47.870;16.058;2022-08-03T06:01:18;97617.13;;;17.43;80.80
49515;BME280;35415;47.870;16.058;2022-08-03T06:03:48;97614.34;;;17.49;80.73
49515;BME280;35415;47.870;16.058;2022-08-03T06:06:18;97612.50;;;17.58;80.34
49515;BME280;35415;47.870;16.058;2022-08-03T06:08:45;97609.88;;;17.66;80.23
49515;BME280;35415;47.870;16.058;2022-08-03T06:11:13;97615.41;;;17.75;80.78
49515;BME280;35415;47.870;16.058;2022-08-03T06:13:41;97612.00;;;17.83;79.91
49515;BME280;35415;47.870;16.058;2022-08-03T06:16:08;97615.91;;;17.91;79.47
49515;BME280;35415;47.870;16.058;2022-08-03T06:18:36;97615.19;;;17.99;79.09
49515;BME280;35415;47.870;16.058;2022-08-03T06:21:03;97565.66;;;17.74;78.86
49515;BME280;35415;47.870;16.058;2022-08-03T06:23:32;97619.34;;;18.19;78.55
49515;BME280;35415;47.870;16.058;2022-08-03T06:26:00;97610.13;;;18.28;78.41
49515;BME280;35415;47.870;16.058;2022-08-03T06:28:27;97619.81;;;18.34;77.47
49515;BME280;35415;47.870;16.058;2022-08-03T06:30:55;97615.69;;;18.46;77.53
49515;BME280;35415;47.870;16.058;2022-08-03T06:33:22;97616.56;;;18.55;77.56
49515;BME280;35415;47.870;16.058;2022-08-03T06:35:50;97624.81;;;18.63;76.64
49515;BME280;35415;47.870;16.058;2022-08-03T06:38:17;97623.78;;;18.73;76.66
49515;BME280;35415;47.870;16.058;2022-08-03T06:40:45;97611.13;;;18.77;76.57
49515;BME280;35415;47.870;16.058;2022-08-03T06:43:12;97615.38;;;18.92;76.25
49515;BME280;35415;47.870;16.058;2022-08-03T06:45:40;97620.56;;;19.02;75.56
49515;BME280;35415;47.870;16.058;2022-08-03T06:48:09;97604.69;;;19.04;74.81
49515;BME280;35415;47.870;16.058;2022-08-03T06:50:39;97612.63;;;19.23;74.80
49515;BME280;35415;47.870;16.058;2022-08-03T06:53:07;97622.16;;;19.34;74.70
49515;BME280;35415;47.870;16.058;2022-08-03T06:55:34;97621.06;;;19.44;74.41
49515;BME280;35415;47.870;16.058;2022-08-03T06:58:03;97619.34;;;19.57;73.49
49515;BME280;35415;47.870;16.058;2022-08-03T07:00:30;97614.75;;;19.66;72.97
49515;BME280;35415;47.870;16.058;2022-08-03T07:02:57;97611.38;;;19.77;72.24
49515;BME280;35415;47.870;16.058;2022-08-03T07:05:24;97612.69;;;19.89;72.06
49515;BME280;35415;47.870;16.058;2022-08-03T07:08:00;97550.66;;;19.55;71.76
49515;BME280;35415;47.870;16.058;2022-08-03T07:10:28;97614.47;;;20.10;71.89
49515;BME280;35415;47.870;16.058;2022-08-03T07:12:55;97477.59;;;19.34;71.59
49515;BME280;35415;47.870;16.058;2022-08-03T07:15:26;97569.50;;;19.99;71.33
49515;BME280;35415;47.870;16.058;2022-08-03T07:17:53;97611.28;;;20.43;70.44
49515;BME280;35415;47.870;16.058;2022-08-03T07:20:20;97605.16;;;20.55;70.67
49515;BME280;35415;47.870;16.058;2022-08-03T07:22:47;97604.50;;;20.66;70.98
49515;BME280;35415;47.870;16.058;2022-08-03T07:25:14;97602.22;;;20.77;70.29
49515;BME280;35415;47.870;16.058;2022-08-03T07:27:42;97581.16;;;20.78;68.88
49515;BME280;35415;47.870;16.058;2022-08-03T07:30:10;97607.28;;;21.05;69.77
49515;BME280;35415;47.870;16.058;2022-08-03T07:32:38;97569.50;;;20.98;68.38
49515;BME280;35415;47.870;16.058;2022-08-03T07:35:08;97600.78;;;21.26;64.24
49515;BME280;35415;47.870;16.058;2022-08-03T07:37:35;97514.66;;;20.94;63.65
49515;BME280;35415;47.870;16.058;2022-08-03T07:40:04;97493.91;;;20.93;59.43
49515;BME280;35415;47.870;16.058;2022-08-03T07:42:32;97589.75;;;21.73;58.61
49515;BME280;35415;47.870;16.058;2022-08-03T07:44:59;97565.94;;;21.74;59.16
49515;BME280;35415;47.870;16.058;2022-08-03T07:47:27;97590.06;;;22.01;59.45
49515;BME280;35415;47.870;16.058;2022-08-03T07:49:56;97590.41;;;22.20;58.15
49515;BME280;35415;47.870;16.058;2022-08-03T07:55:14;97585.75;;;22.54;55.88
49515;BME280;35415;47.870;16.058;2022-08-03T07:57:42;97470.41;;;21.93;55.69
49515;BME280;35415;47.870;16.058;2022-08-03T08:00:13;97578.53;;;22.83;54.55
49515;BME280;35415;47.870;16.058;2022-08-03T08:02:41;97574.13;;;22.90;54.79
49515;BME280;35415;47.870;16.058;2022-08-03T08:05:11;97449.19;;;22.23;54.41
49515;BME280;35415;47.870;16.058;2022-08-03T08:07:39;97533.66;;;22.87;53.55
49515;BME280;35415;47.870;16.058;2022-08-03T08:10:08;97437.03;;;22.45;53.52
49515;BME280;35415;47.870;16.058;2022-08-03T08:12:36;97541.00;;;23.20;53.02
49515;BME280;35415;47.870;16.058;2022-08-03T08:15:10;97583.56;;;23.62;53.08
49515;BME280;35415;47.870;16.058;2022-08-03T08:17:41;97583.66;;;23.78;52.12
49515;BME280;35415;47.870;16.058;2022-08-03T08:20:15;97558.72;;;23.71;52.96
49515;BME280;35415;47.870;16.058;2022-08-03T08:22:42;97566.81;;;23.92;51.84
49515;BME280;35415;47.870;16.058;2022-08-03T08:25:10;97541.97;;;23.88;50.63
49515;BME280;35415;47.870;16.058;2022-08-03T08:27:41;97586.63;;;24.25;52.04
49515;BME280;35415;47.870;16.058;2022-08-03T08:30:09;97592.69;;;24.31;55.13
49515;BME280;35415;47.870;16.058;2022-08-03T08:32:37;97492.63;;;23.92;50.91
49515;BME280;35415;47.870;16.058;2022-08-03T08:35:06;97536.00;;;24.26;51.16
49515;BME280;35415;47.870;16.058;2022-08-03T08:37:35;97541.94;;;24.41;50.41
49515;BME280;35415;47.870;16.058;2022-08-03T08:40:03;97503.69;;;24.36;50.57
49515;BME280;35415;47.870;16.058;2022-08-03T08:42:31;97576.72;;;24.93;50.88
49515;BME280;35415;47.870;16.058;2022-08-03T08:44:59;97539.31;;;24.76;49.68
49515;BME280;35415;47.870;16.058;2022-08-03T08:47:29;97473.38;;;24.48;49.70
49515;BME280;35415;47.870;16.058;2022-08-03T08:49:57;97530.25;;;25.03;49.73
49515;BME280;35415;47.870;16.058;2022-08-03T08:52:27;97463.09;;;24.60;50.51
49515;BME280;35415;47.870;16.058;2022-08-03T08:54:58;97472.88;;;24.89;48.86
49515;BME280;35415;47.870;16.058;2022-08-03T08:57:30;97512.00;;;25.30;48.23
49515;BME280;35415;47.870;16.058;2022-08-03T09:00:00;97579.34;;;25.84;48.31
49515;BME280;35415;47.870;16.058;2022-08-03T09:02:29;97531.22;;;25.62;47.55
49515;BME280;35415;47.870;16.058;2022-08-03T09:04:57;97558.28;;;25.91;47.92
49515;BME280;35415;47.870;16.058;2022-08-03T09:07:25;97540.72;;;25.99;46.00
49515;BME280;35415;47.870;16.058;2022-08-03T09:09:54;97505.69;;;25.81;46.04
49515;BME280;35415;47.870;16.058;2022-08-03T09:12:24;97573.19;;;26.45;45.30
49515;BME280;35415;47.870;16.058;2022-08-03T09:14:52;97436.28;;;25.75;44.71
49515;BME280;35415;47.870;16.058;2022-08-03T09:17:20;97475.91;;;26.05;42.65
49515;BME280;35415;47.870;16.058;2022-08-03T09:20:05;97484.88;;;26.22;44.95
49515;BME280;35415;47.870;16.058;2022-08-03T09:22:34;97461.66;;;26.23;42.79
49515;BME280;35415;47.870;16.058;2022-08-03T09:25:03;97455.47;;;26.29;42.36
49515;BME280;35415;47.870;16.058;2022-08-03T09:27:42;97458.53;;;26.44;44.01
49515;BME280;35415;47.870;16.058;2022-08-03T09:30:14;97517.47;;;27.01;43.38
49515;BME280;35415;47.870;16.058;2022-08-03T09:32:42;97490.09;;;26.92;41.93
49515;BME280;35415;47.870;16.058;2022-08-03T09:35:11;97480.41;;;27.02;40.58
49515;BME280;35415;47.870;16.058;2022-08-03T09:37:42;97471.09;;;27.10;40.17
49515;BME280;35415;47.870;16.058;2022-08-03T09:40:09;97496.75;;;27.37;39.50
49515;BME280;35415;47.870;16.058;2022-08-03T09:42:56;97510.09;;;27.57;41.59
49515;BME280;35415;47.870;16.058;2022-08-03T09:45:27;97516.03;;;27.86;39.85
49515;BME280;35415;47.870;16.058;2022-08-03T09:47:57;97490.69;;;27.80;39.08
49515;BME280;35415;47.870;16.058;2022-08-03T09:50:49;97517.56;;;28.13;40.31
49515;BME280;35415;47.870;16.058;2022-08-03T09:53:17;97452.41;;;27.82;39.72
49515;BME280;35415;47.870;16.058;2022-08-03T09:55:57;97509.25;;;28.43;40.25
49515;BME280;35415;47.870;16.058;2022-08-03T09:58:28;97534.38;;;28.65;37.64
49515;BME280;35415;47.870;16.058;2022-08-03T10:01:00;97492.03;;;28.61;37.48
49515;BME280;35415;47.870;16.058;2022-08-03T10:03:29;97426.13;;;28.33;37.83
49515;BME280;35415;47.870;16.058;2022-08-03T10:05:57;97439.81;;;28.56;35.30
49515;BME280;35415;47.870;16.058;2022-08-03T10:08:24;97424.06;;;28.63;36.17
49515;BME280;35415;47.870;16.058;2022-08-03T10:10:52;97445.69;;;28.91;35.01
49515;BME280;35415;47.870;16.058;2022-08-03T10:13:20;97419.94;;;28.87;35.18
49515;BME280;35415;47.870;16.058;2022-08-03T10:15:49;97425.63;;;29.09;35.04
49515;BME280;35415;47.870;16.058;2022-08-03T10:18:17;97434.78;;;29.20;35.48
49515;BME280;35415;47.870;16.058;2022-08-03T10:20:49;97533.88;;;29.95;33.84
49515;BME280;35415;47.870;16.058;2022-08-03T10:23:18;97487.06;;;29.87;33.36
49515;BME280;35415;47.870;16.058;2022-08-03T10:25:53;97525.34;;;30.26;33.94
49515;BME280;35415;47.870;16.058;2022-08-03T10:28:24;97540.47;;;30.42;33.34
49515;BME280;35415;47.870;16.058;2022-08-03T10:30:54;97534.13;;;30.56;33.58
49515;BME280;35415;47.870;16.058;2022-08-03T10:33:24;97491.25;;;30.39;31.69
49515;BME280;35415;47.870;16.058;2022-08-03T10:35:55;97491.28;;;30.43;33.38
49515;BME280;35415;47.870;16.058;2022-08-03T10:38:28;97401.16;;;29.90;33.15
49515;BME280;35415;47.870;16.058;2022-08-03T10:40:59;97494.88;;;30.47;33.01
49515;BME280;35415;47.870;16.058;2022-08-03T10:43:33;97415.03;;;29.94;32.66
49515;BME280;35415;47.870;16.058;2022-08-03T10:46:07;97430.84;;;29.90;33.08
49515;BME280;35415;47.870;16.058;2022-08-03T10:48:35;97440.78;;;29.94;32.93
49515;BME280;35415;47.870;16.058;2022-08-03T10:51:03;97474.56;;;30.21;32.50
49515;BME280;35415;47.870;16.058;2022-08-03T10:53:36;97405.81;;;29.72;33.29
49515;BME280;35415;47.870;16.058;2022-08-03T10:56:04;97403.38;;;29.56;32.83
49515;BME280;35415;47.870;16.058;2022-08-03T10:58:50;97516.19;;;30.21;33.07
49515;BME280;35415;47.870;16.058;2022-08-03T11:01:49;97519.75;;;30.22;35.10
49515;BME280;35415;47.870;16.058;2022-08-03T11:04:18;97476.44;;;29.96;33.16
49515;BME280;35415;47.870;16.058;2022-08-03T11:06:46;97407.69;;;29.47;33.39
49515;BME280;35415;47.870;16.058;2022-08-03T11:09:16;97404.88;;;29.43;33.12
49515;BME280;35415;47.870;16.058;2022-08-03T11:11:47;97400.47;;;29.39;33.24
49515;BME280;35415;47.870;16.058;2022-08-03T11:14:17;97452.13;;;29.64;33.56
49515;BME280;35415;47.870;16.058;2022-08-03T11:16:48;97405.22;;;29.34;34.17
49515;BME280;35415;47.870;16.058;2022-08-03T11:19:18;97393.03;;;29.46;33.04
49515;BME280;35415;47.870;16.058;2022-08-03T11:21:53;97403.81;;;29.65;34.01
49515;BME280;35415;47.870;16.058;2022-08-03T11:27:37;97461.88;;;30.17;33.20
49515;BME280;35415;47.870;16.058;2022-08-03T11:30:06;97419.81;;;30.04;33.05
49515;BME280;35415;47.870;16.058;2022-08-03T11:32:58;97370.25;;;29.92;33.80
49515;BME280;35415;47.870;16.058;2022-08-03T11:35:28;97499.72;;;30.86;34.86
49515;BME280;35415;47.870;16.058;2022-08-03T11:38:07;97401.69;;;30.49;32.70
49515;BME280;35415;47.870;16.058;2022-08-03T11:40:41;97377.50;;;30.46;31.39
49515;BME280;35415;47.870;16.058;2022-08-03T11:45:57;97371.19;;;30.67;30.32
49515;BME280;35415;47.870;16.058;2022-08-03T11:48:31;97414.41;;;31.11;31.21
49515;BME280;35415;47.870;16.058;2022-08-03T11:51:00;97449.72;;;31.35;30.12
49515;BME280;35415;47.870;16.058;2022-08-03T11:53:28;97399.72;;;31.10;29.82
49515;BME280;35415;47.870;16.058;2022-08-03T11:56:00;97460.38;;;31.65;29.62
49515;BME280;35415;47.870;16.058;2022-08-03T11:58:29;97380.63;;;31.30;29.20
49515;BME280;35415;47.870;16.058;2022-08-03T12:01:03;97388.88;;;31.55;29.97
49515;BME280;35415;47.870;16.058;2022-08-03T12:03:33;97465.34;;;32.17;28.96
49515;BME280;35415;47.870;16.058;2022-08-03T12:06:00;97476.81;;;32.37;29.18
49515;BME280;35415;47.870;16.058;2022-08-03T12:08:30;97473.19;;;32.47;28.77
49515;BME280;35415;47.870;16.058;2022-08-03T12:10:59;97469.13;;;32.55;28.91
49515;BME280;35415;47.870;16.058;2022-08-03T12:13:35;97459.56;;;32.63;27.78
49515;BME280;35415;47.870;16.058;2022-08-03T12:16:03;97473.00;;;32.72;27.21
49515;BME280;35415;47.870;16.058;2022-08-03T12:18:32;97474.97;;;32.75;27.28
49515;BME280;35415;47.870;16.058;2022-08-03T12:21:05;97455.88;;;32.77;27.50
49515;BME280;35415;47.870;16.058;2022-08-03T12:23:32;97466.97;;;32.84;27.25
49515;BME280;35415;47.870;16.058;2022-08-03T12:26:01;97445.22;;;32.65;26.92
49515;BME280;35415;47.870;16.058;2022-08-03T12:28:29;97456.63;;;32.84;27.52
49515;BME280;35415;47.870;16.058;2022-08-03T12:31:00;97461.34;;;32.91;27.56
49515;BME280;35415;47.870;16.058;2022-08-03T12:33:28;97437.88;;;32.88;25.32
49515;BME280;35415;47.870;16.058;2022-08-03T12:36:05;97442.94;;;33.04;27.92
49515;BME280;35415;47.870;16.058;2022-08-03T12:38:34;97446.09;;;33.10;26.48
49515;BME280;35415;47.870;16.058;2022-08-03T12:41:03;97446.41;;;33.15;26.15
49515;BME280;35415;47.870;16.058;2022-08-03T12:43:31;97445.97;;;33.20;26.87
49515;BME280;35415;47.870;16.058;2022-08-03T12:46:12;97438.03;;;33.19;27.42
49515;BME280;35415;47.870;16.058;2022-08-03T12:49:00;97446.22;;;33.37;27.88
49515;BME280;35415;47.870;16.058;2022-08-03T12:51:32;97433.56;;;33.29;26.29
49515;BME280;35415;47.870;16.058;2022-08-03T12:54:00;97434.72;;;33.31;25.35
49515;BME280;35415;47.870;16.058;2022-08-03T12:56:27;97440.34;;;33.28;26.35
49515;BME280;35415;47.870;16.058;2022-08-03T12:58:55;97436.34;;;33.25;25.45
49515;BME280;35415;47.870;16.058;2022-08-03T13:01:22;97434.75;;;33.28;26.12
49515;BME280;35415;47.870;16.058;2022-08-03T13:03:52;97429.97;;;33.28;25.61
49515;BME280;35415;47.870;16.058;2022-08-03T13:06:22;97428.41;;;33.24;25.65
49515;BME280;35415;47.870;16.058;2022-08-03T13:09:02;97428.81;;;33.22;27.38
49515;BME280;35415;47.870;16.058;2022-08-03T13:11:30;97423.25;;;33.22;25.81
49515;BME280;35415;47.870;16.058;2022-08-03T13:13:57;97422.81;;;33.27;25.69